createdAt,value
2023-02-11T00:00:29.121Z,37.43
2023-02-11T00:01:36.201Z,38.30
2023-02-11T00:02:23.493Z,40.73
2023-02-11T00:03:12.146Z,37.43
2023-02-11T00:04:06.281Z,38.87
2023-02-11T00:04:50.743Z,38.00
2023-02-11T00:05:35.130Z,36.83
2023-02-11T00:06:28.285Z,33.80
2023-02-11T00:07:13.947Z,34.40
2023-02-11T00:07:55.582Z,35.50
2023-02-11T00:08:48.125Z,36.37
2023-02-11T00:09:36.318Z,38.30
2023-02-11T00:10:17.968Z,33.73
2023-02-11T00:10:59.645Z,37.60
2023-02-11T00:11:59.011Z,35.13
2023-02-11T00:12:48.675Z,33.50
2023-02-11T00:13:33.563Z,38.13
2023-02-11T00:14:19.325Z,35.70
2023-02-11T00:15:07.811Z,34.43
2023-02-11T00:16:00.198Z,34.30
2023-02-11T00:16:44.628Z,36.60
2023-02-11T00:17:28.718Z,36.33
2023-02-11T00:18:11.557Z,35.57
2023-02-11T00:18:56.127Z,33.83
2023-02-11T00:19:54.908Z,33.33
2023-02-11T00:20:41.124Z,30.90
2023-02-11T00:21:29.593Z,34.97
2023-02-11T00:22:11.244Z,32.30
2023-02-11T00:22:54.044Z,32.37
2023-02-11T00:23:40.465Z,35.03
2023-02-11T00:24:31.257Z,33.70
2023-02-11T00:25:16.581Z,34.17
2023-02-11T00:26:01.274Z,33.50
2023-02-11T00:26:43.003Z,32.17
2023-02-11T00:27:29.953Z,34.37
2023-02-11T00:28:26.283Z,33.50
2023-02-11T00:29:25.600Z,30.40
2023-02-11T00:30:16.538Z,30.57
2023-02-11T00:31:06.791Z,31.40
2023-02-11T00:31:54.775Z,33.07
2023-02-11T00:32:42.620Z,33.40
2023-02-11T00:33:27.562Z,27.90
2023-02-11T00:34:15.187Z,31.83
2023-02-11T00:34:59.654Z,32.23
2023-02-11T00:35:53.546Z,29.97
2023-02-11T00:36:36.563Z,29.40
2023-02-11T00:37:20.006Z,28.65
2023-02-11T00:38:14.556Z,30.03
2023-02-11T00:39:01.077Z,31.67
2023-02-11T00:39:56.751Z,30.45
2023-02-11T00:40:40.679Z,31.47
2023-02-11T00:41:26.110Z,35.43
2023-02-11T00:42:37.890Z,35.03
2023-02-11T00:43:25.462Z,32.63
2023-02-11T00:44:10.433Z,30.17
2023-02-11T00:45:06.422Z,30.40
2023-02-11T00:45:58.360Z,31.37
2023-02-11T00:46:43.171Z,31.60
2023-02-11T00:47:26.727Z,28.77
2023-02-11T00:48:17.279Z,28.53
2023-02-11T00:49:08.923Z,28.90
2023-02-11T00:49:52.804Z,29.93
2023-02-11T00:50:36.755Z,31.20
2023-02-11T00:51:29.468Z,28.17
2023-02-11T00:52:32.295Z,29.30
2023-02-11T00:53:14.181Z,28.40
2023-02-11T00:53:58.621Z,30.47
2023-02-11T00:54:45.881Z,30.20
2023-02-11T00:55:47.907Z,31.07
2023-02-11T00:56:41.542Z,29.77
2023-02-11T00:57:23.233Z,30.63
2023-02-11T00:58:13.780Z,28.00
2023-02-11T00:58:57.735Z,29.57
2023-02-11T00:59:40.206Z,29.47
2023-02-11T01:00:22.203Z,28.00
2023-02-11T01:01:06.527Z,29.73
2023-02-11T01:01:56.850Z,29.90
2023-02-11T01:02:45.565Z,28.83
2023-02-11T01:03:30.434Z,28.95
2023-02-11T01:04:23.688Z,28.83
2023-02-11T01:05:10.261Z,28.73
2023-02-11T01:05:56.795Z,29.80
2023-02-11T01:06:56.532Z,29.03
2023-02-11T01:07:40.487Z,27.93
2023-02-11T01:08:22.814Z,30.30
2023-02-11T01:09:13.553Z,29.90
2023-02-11T01:09:58.003Z,27.73
2023-02-11T01:10:44.005Z,28.30
2023-02-11T01:11:29.016Z,30.58
2023-02-11T01:12:16.263Z,27.10
2023-02-11T01:12:59.309Z,29.03
2023-02-11T01:13:48.402Z,29.98
2023-02-11T01:14:37.599Z,27.80
2023-02-11T01:15:22.424Z,29.93
2023-02-11T01:16:09.908Z,28.42
2023-02-11T01:17:05.140Z,28.40
2023-02-11T01:17:52.599Z,28.92
2023-02-11T01:18:38.009Z,27.52
2023-02-11T01:19:22.247Z,28.02
2023-02-11T01:20:09.051Z,27.27
2023-02-11T01:20:54.705Z,26.90
2023-02-11T01:21:42.935Z,26.07
2023-02-11T01:22:27.438Z,26.05
2023-02-11T01:23:15.035Z,28.42
2023-02-11T01:24:03.096Z,25.83
2023-02-11T01:24:47.784Z,27.43
2023-02-11T01:25:34.295Z,27.52
2023-02-11T01:26:22.109Z,27.98
2023-02-11T01:27:12.531Z,26.25
2023-02-11T01:27:57.034Z,25.55
2023-02-11T01:28:38.919Z,25.90
2023-02-11T01:29:23.014Z,28.52
2023-02-11T01:30:12.252Z,27.13
2023-02-11T01:31:05.207Z,26.42
2023-02-11T01:31:48.285Z,24.40
2023-02-11T01:32:31.193Z,28.17
2023-02-11T01:33:19.576Z,25.55
2023-02-11T01:34:05.916Z,26.20
2023-02-11T01:34:47.620Z,25.17
2023-02-11T01:35:40.454Z,25.33
2023-02-11T01:36:32.201Z,26.10
2023-02-11T01:37:18.193Z,25.98
2023-02-11T01:38:02.237Z,26.23
2023-02-11T01:38:46.964Z,26.30
2023-02-11T01:39:33.903Z,28.67
2023-02-11T01:40:22.405Z,26.92
2023-02-11T01:41:07.348Z,27.77
2023-02-11T01:41:53.735Z,26.45
2023-02-11T01:42:51.153Z,28.27
2023-02-11T01:43:55.323Z,28.17
2023-02-11T01:44:43.854Z,28.60
2023-02-11T01:45:53.097Z,27.00
2023-02-11T01:46:37.059Z,26.63
2023-02-11T01:47:25.016Z,26.20
2023-02-11T01:48:13.488Z,27.40
2023-02-11T01:49:04.225Z,27.98
2023-02-11T01:50:03.497Z,26.37
2023-02-11T01:50:57.536Z,29.05
2023-02-11T01:51:51.427Z,27.30
2023-02-11T01:52:39.195Z,26.87
2023-02-11T01:53:44.142Z,28.73
2023-02-11T01:54:50.404Z,26.90
2023-02-11T01:55:57.483Z,27.63
2023-02-11T01:57:08.666Z,27.90
2023-02-11T01:57:59.088Z,26.40
2023-02-11T01:58:55.245Z,25.27
2023-02-11T02:00:06.408Z,24.87
2023-02-11T02:01:10.522Z,26.95
2023-02-11T02:02:22.363Z,27.57
2023-02-11T02:03:24.276Z,27.47
2023-02-11T02:04:09.836Z,28.20
2023-02-11T02:05:17.601Z,29.63
2023-02-11T02:06:15.277Z,27.50
2023-02-11T02:07:17.594Z,28.93
2023-02-11T02:08:19.065Z,29.83
2023-02-11T02:09:11.424Z,29.30
2023-02-11T02:10:14.933Z,29.25
2023-02-11T02:10:58.407Z,29.20
2023-02-11T02:11:42.980Z,28.65
2023-02-11T02:12:24.689Z,26.27
2023-02-11T02:13:08.203Z,27.15
2023-02-11T02:13:52.473Z,27.23
2023-02-11T02:14:41.717Z,28.17
2023-02-11T02:15:36.705Z,27.67
2023-02-11T02:16:21.637Z,29.05
2023-02-11T02:17:07.234Z,29.67
2023-02-11T02:18:12.818Z,25.55
2023-02-11T02:19:18.572Z,26.17
2023-02-11T02:20:48.902Z,28.83
2023-02-11T02:21:53.092Z,30.77
2023-02-11T02:23:02.538Z,32.83
2023-02-11T02:24:06.208Z,27.17
2023-02-11T02:25:02.803Z,30.95
2023-02-11T02:26:05.448Z,30.90
2023-02-11T02:27:01.733Z,30.00
2023-02-11T02:28:17.705Z,27.98
2023-02-11T02:29:40.287Z,26.60
2023-02-11T02:30:50.086Z,28.70
2023-02-11T02:31:44.545Z,27.50
2023-02-11T02:33:22.286Z,29.83
2023-02-11T02:34:15.052Z,30.13
2023-02-11T02:35:25.647Z,28.25
2023-02-11T02:36:37.412Z,27.73
2023-02-11T02:37:36.137Z,27.63
2023-02-11T02:38:23.771Z,26.42
2023-02-11T02:39:24.241Z,27.77
2023-02-11T02:40:12.908Z,25.13
2023-02-11T02:41:19.196Z,28.40
2023-02-11T02:42:01.718Z,26.50
2023-02-11T02:42:49.785Z,29.90
2023-02-11T02:43:55.254Z,29.10
2023-02-11T02:44:44.158Z,31.80
2023-02-11T02:45:28.960Z,30.20
2023-02-11T02:46:19.327Z,28.83
2023-02-11T02:47:03.686Z,30.08
2023-02-11T02:47:47.974Z,27.10
2023-02-11T02:48:40.303Z,29.10
2023-02-11T02:49:24.781Z,28.77
2023-02-11T02:50:10.945Z,25.33
2023-02-11T02:51:24.567Z,29.10
2023-02-11T02:52:26.415Z,29.17
2023-02-11T02:53:37.285Z,25.48
2023-02-11T02:54:31.154Z,29.20
2023-02-11T02:55:31.149Z,28.50
2023-02-11T02:56:26.047Z,26.38
2023-02-11T02:57:33.654Z,28.52
2023-02-11T02:58:25.195Z,27.87
2023-02-11T02:59:21.909Z,26.55
2023-02-11T03:00:19.444Z,29.08
2023-02-11T03:01:09.762Z,29.27
2023-02-11T03:02:10.890Z,28.48
2023-02-11T03:03:17.762Z,29.38
2023-02-11T03:04:36.336Z,29.58
2023-02-11T03:05:47.896Z,26.08
2023-02-11T03:07:04.064Z,28.45
2023-02-11T03:07:57.855Z,27.15
2023-02-11T03:08:54.223Z,25.98
2023-02-11T03:10:11.394Z,28.02
2023-02-11T03:11:01.053Z,26.25
2023-02-11T03:11:45.373Z,25.88
2023-02-11T03:12:38.709Z,28.60
2023-02-11T03:13:29.026Z,31.17
2023-02-11T03:14:18.502Z,27.75
2023-02-11T03:15:11.503Z,29.27
2023-02-11T03:16:02.793Z,29.60
2023-02-11T03:16:56.097Z,28.25
2023-02-11T03:17:48.568Z,30.63
2023-02-11T03:18:46.368Z,29.27
2023-02-11T03:19:39.702Z,28.93
2023-02-11T03:20:26.913Z,27.10
2023-02-11T03:21:21.095Z,27.50
2023-02-11T03:22:05.339Z,26.52
2023-02-11T03:22:58.122Z,24.80
2023-02-11T03:23:50.964Z,26.98
2023-02-11T03:24:51.305Z,27.52
2023-02-11T03:25:51.065Z,25.45
2023-02-11T03:26:41.365Z,25.85
2023-02-11T03:27:36.160Z,26.13
2023-02-11T03:28:27.142Z,25.65
2023-02-11T03:29:32.311Z,25.63
2023-02-11T03:30:25.023Z,28.33
2023-02-11T03:31:21.344Z,30.10
2023-02-11T03:32:35.680Z,28.02
2023-02-11T03:33:27.987Z,26.58
2023-02-11T03:34:40.676Z,25.90
2023-02-11T03:35:52.783Z,28.00
2023-02-11T03:37:02.492Z,26.52
2023-02-11T03:38:03.576Z,26.70
2023-02-11T03:38:59.254Z,27.30
2023-02-11T03:40:03.378Z,27.60
2023-02-11T03:40:56.314Z,26.15
2023-02-11T03:41:46.099Z,25.30
2023-02-11T03:42:41.315Z,25.23
2023-02-11T03:43:32.041Z,25.65
2023-02-11T03:44:49.938Z,27.73
2023-02-11T03:45:31.787Z,27.70
2023-02-11T03:46:19.491Z,25.15
2023-02-11T03:47:14.841Z,26.17
2023-02-11T03:48:18.122Z,24.60
2023-02-11T03:49:07.972Z,26.02
2023-02-11T03:49:55.011Z,25.23
2023-02-11T03:50:41.275Z,27.95
2023-02-11T03:51:30.602Z,26.45
2023-02-11T03:52:16.944Z,25.75
2023-02-11T03:53:04.318Z,25.80
2023-02-11T03:53:47.697Z,28.42
2023-02-11T03:54:32.820Z,28.40
2023-02-11T03:55:33.516Z,27.38
2023-02-11T03:56:24.289Z,26.45
2023-02-11T03:57:06.021Z,27.93
2023-02-11T03:57:58.299Z,25.80
2023-02-11T03:58:39.936Z,25.23
2023-02-11T03:59:29.805Z,25.05
2023-02-11T04:00:16.409Z,25.55
2023-02-11T04:01:06.333Z,24.13
2023-02-11T04:01:52.343Z,25.15
2023-02-11T04:02:41.132Z,25.73
2023-02-11T04:03:29.049Z,27.50
2023-02-11T04:04:10.868Z,25.65
2023-02-11T04:04:56.752Z,26.23
2023-02-11T04:05:48.893Z,26.77
2023-02-11T04:06:30.687Z,26.40
2023-02-11T04:07:19.786Z,26.70
2023-02-11T04:08:03.996Z,26.17
2023-02-11T04:08:51.153Z,26.30
2023-02-11T04:10:09.509Z,25.38
2023-02-11T04:11:00.796Z,27.33
2023-02-11T04:11:58.606Z,26.25
2023-02-11T04:12:50.484Z,25.02
2023-02-11T04:13:32.247Z,24.02
2023-02-11T04:14:22.174Z,26.80
2023-02-11T04:15:04.133Z,26.08
2023-02-11T04:15:47.850Z,25.25
2023-02-11T04:16:39.140Z,24.40
2023-02-11T04:17:29.205Z,25.23
2023-02-11T04:18:16.535Z,26.20
2023-02-11T04:19:07.926Z,24.77
2023-02-11T04:20:14.955Z,27.63
2023-02-11T04:20:59.122Z,25.98
2023-02-11T04:21:43.280Z,24.20
2023-02-11T04:22:25.020Z,23.77
2023-02-11T04:23:10.169Z,24.00
2023-02-11T04:23:51.908Z,27.33
2023-02-11T04:24:40.322Z,24.88
2023-02-11T04:25:21.989Z,24.55
2023-02-11T04:26:03.944Z,25.75
2023-02-11T04:26:54.981Z,25.75
2023-02-11T04:27:37.031Z,24.75
2023-02-11T04:28:24.125Z,24.33
2023-02-11T04:29:08.876Z,24.23
2023-02-11T04:29:57.226Z,25.95
2023-02-11T04:30:45.556Z,27.35
2023-02-11T04:31:30.152Z,23.58
2023-02-11T04:32:21.485Z,27.13
2023-02-11T04:33:18.814Z,25.02
2023-02-11T04:34:06.682Z,25.60
2023-02-11T04:34:54.816Z,24.88
2023-02-11T04:35:50.251Z,26.95
2023-02-11T04:36:36.023Z,23.30
2023-02-11T04:37:22.338Z,23.42
2023-02-11T04:38:05.420Z,24.42
2023-02-11T04:38:57.787Z,24.40
2023-02-11T04:39:42.209Z,27.77
2023-02-11T04:40:23.912Z,25.45
2023-02-11T04:41:08.555Z,26.25
2023-02-11T04:42:01.540Z,25.02
2023-02-11T04:42:51.888Z,24.33
2023-02-11T04:43:42.416Z,25.35
2023-02-11T04:44:26.706Z,28.55
2023-02-11T04:45:13.942Z,28.25
2023-02-11T04:46:01.530Z,24.40
2023-02-11T04:46:44.390Z,27.27
2023-02-11T04:47:26.110Z,25.02
2023-02-11T04:48:15.651Z,25.33
2023-02-11T04:49:04.809Z,25.60
2023-02-11T04:49:48.258Z,28.75
2023-02-11T04:50:33.801Z,24.40
2023-02-11T04:51:27.228Z,24.70
2023-02-11T04:52:26.336Z,23.10
2023-02-11T04:53:14.570Z,24.92
2023-02-11T04:53:57.705Z,24.23
2023-02-11T04:54:42.446Z,22.65
2023-02-11T04:55:30.286Z,23.35
2023-02-11T04:56:14.626Z,22.33
2023-02-11T04:57:03.052Z,23.20
2023-02-11T04:57:58.858Z,23.55
2023-02-11T04:58:47.698Z,23.25
2023-02-11T04:59:37.959Z,21.10
2023-02-11T05:00:30.689Z,22.02
2023-02-11T05:01:20.768Z,23.98
2023-02-11T05:02:05.106Z,23.30
2023-02-11T05:03:07.046Z,23.00
2023-02-11T05:03:55.962Z,21.70
2023-02-11T05:04:39.125Z,20.92
2023-02-11T05:05:36.398Z,21.50
2023-02-11T05:06:23.822Z,21.83
2023-02-11T05:07:10.042Z,20.67
2023-02-11T05:07:51.722Z,21.45
2023-02-11T05:08:48.873Z,21.58
2023-02-11T05:09:34.685Z,20.13
2023-02-11T05:10:24.662Z,21.15
2023-02-11T05:11:08.484Z,19.42
2023-02-11T05:11:58.963Z,21.92
2023-02-11T05:12:51.899Z,23.05
2023-02-11T05:13:37.218Z,20.52
2023-02-11T05:14:23.572Z,23.20
2023-02-11T05:15:14.400Z,22.38
2023-02-11T05:15:59.470Z,22.77
2023-02-11T05:16:45.204Z,20.13
2023-02-11T05:17:29.793Z,20.25
2023-02-11T05:18:17.978Z,21.90
2023-02-11T05:19:05.903Z,19.88
2023-02-11T05:19:47.543Z,21.92
2023-02-11T05:20:37.229Z,18.80
2023-02-11T05:21:38.721Z,20.23
2023-02-11T05:22:23.230Z,18.27
2023-02-11T05:23:07.672Z,21.17
2023-02-11T05:24:04.064Z,19.52
2023-02-11T05:24:54.578Z,19.00
2023-02-11T05:25:51.760Z,20.08
2023-02-11T05:26:44.584Z,20.88
2023-02-11T05:27:36.257Z,18.27
2023-02-11T05:28:19.109Z,19.70
2023-02-11T05:29:26.317Z,20.45
2023-02-11T05:31:10.189Z,20.27
2023-02-11T05:32:06.004Z,21.88
2023-02-11T05:33:02.530Z,20.88
2023-02-11T05:34:03.117Z,24.55
2023-02-11T05:34:50.075Z,20.15
2023-02-11T05:35:37.746Z,20.20
2023-02-11T05:36:20.397Z,19.33
2023-02-11T05:37:11.833Z,21.08
2023-02-11T05:38:04.367Z,20.45
2023-02-11T05:38:59.680Z,21.77
2023-02-11T05:39:50.378Z,22.33
2023-02-11T05:40:41.636Z,23.27
2023-02-11T05:41:27.557Z,23.88
2023-02-11T05:42:10.771Z,21.48
2023-02-11T05:42:54.148Z,22.35
2023-02-11T05:43:44.208Z,22.80
2023-02-11T05:44:32.535Z,22.73
2023-02-11T05:45:14.233Z,20.80
2023-02-11T05:45:55.993Z,20.88
2023-02-11T05:47:00.503Z,22.83
2023-02-11T05:47:44.492Z,21.05
2023-02-11T05:48:37.411Z,22.70
2023-02-11T05:49:28.132Z,20.77
2023-02-11T05:50:18.201Z,20.92
2023-02-11T05:51:05.692Z,21.90
2023-02-11T05:51:50.204Z,21.63
2023-02-11T05:52:38.089Z,21.40
2023-02-11T05:53:30.288Z,21.52
2023-02-11T05:54:16.725Z,22.40
2023-02-11T05:55:09.880Z,21.42
2023-02-11T05:55:51.892Z,22.95
2023-02-11T05:56:38.680Z,21.23
2023-02-11T05:57:26.568Z,22.13
2023-02-11T05:58:23.090Z,22.27
2023-02-11T05:59:21.061Z,23.77
2023-02-11T06:00:04.358Z,23.85
2023-02-11T06:00:54.519Z,24.58
2023-02-11T06:01:50.247Z,19.65
2023-02-11T06:02:43.338Z,22.58
2023-02-11T06:03:37.652Z,22.23
2023-02-11T06:04:30.494Z,22.35
2023-02-11T06:05:15.178Z,23.05
2023-02-11T06:05:59.424Z,21.92
2023-02-11T06:06:48.275Z,20.33
2023-02-11T06:07:32.980Z,22.08
2023-02-11T06:08:18.996Z,21.23
2023-02-11T06:09:04.368Z,21.67
2023-02-11T06:09:48.842Z,22.55
2023-02-11T06:11:02.772Z,20.70
2023-02-11T06:11:47.210Z,21.10
2023-02-11T06:12:28.828Z,23.73
2023-02-11T06:13:14.018Z,21.77
2023-02-11T06:13:55.760Z,21.55
2023-02-11T06:14:48.920Z,20.25
2023-02-11T06:15:40.536Z,22.55
2023-02-11T06:16:23.677Z,23.65
2023-02-11T06:17:11.701Z,23.23
2023-02-11T06:17:56.622Z,22.70
2023-02-11T06:18:50.519Z,23.85
2023-02-11T06:19:35.220Z,20.75
2023-02-11T06:20:21.416Z,22.83
2023-02-11T06:21:17.022Z,22.23
2023-02-11T06:22:13.284Z,25.67
2023-02-11T06:23:06.830Z,20.67
2023-02-11T06:24:05.683Z,22.35
2023-02-11T06:25:57.548Z,23.52
2023-02-11T06:26:42.699Z,22.88
2023-02-11T06:27:27.261Z,22.02
2023-02-11T06:28:14.164Z,21.67
2023-02-11T06:29:00.315Z,23.23
2023-02-11T06:29:55.730Z,21.42
2023-02-11T06:30:43.518Z,23.58
2023-02-11T06:31:30.378Z,21.60
2023-02-11T06:32:43.994Z,23.90
2023-02-11T06:33:29.372Z,22.83
2023-02-11T06:34:12.343Z,22.13
2023-02-11T06:34:56.866Z,22.73
2023-02-11T06:35:52.033Z,21.77
2023-02-11T06:36:36.511Z,20.85
2023-02-11T06:37:24.583Z,22.77
2023-02-11T06:38:17.122Z,22.30
2023-02-11T06:38:58.781Z,20.92
2023-02-11T06:40:00.161Z,21.80
2023-02-11T06:40:48.678Z,20.90
2023-02-11T06:41:33.027Z,20.52
2023-02-11T06:42:18.762Z,22.35
2023-02-11T06:43:14.808Z,23.30
2023-02-11T06:44:00.708Z,22.77
2023-02-11T06:44:49.947Z,23.58
2023-02-11T06:45:34.328Z,20.70
2023-02-11T06:46:38.018Z,20.92
2023-02-11T06:47:23.520Z,24.00
2023-02-11T06:48:05.830Z,26.63
2023-02-11T06:48:52.001Z,21.55
2023-02-11T06:49:39.031Z,22.80
2023-02-11T06:50:26.989Z,22.33
2023-02-11T06:51:11.244Z,22.13
2023-02-11T06:52:17.184Z,23.13
2023-02-11T06:53:02.639Z,25.25
2023-02-11T06:53:49.979Z,23.17
2023-02-11T06:54:34.630Z,25.77
2023-02-11T06:55:30.042Z,23.95
2023-02-11T06:56:36.753Z,24.13
2023-02-11T06:57:21.072Z,25.05
2023-02-11T06:58:05.110Z,23.52
2023-02-11T06:58:50.283Z,25.35
2023-02-11T06:59:33.205Z,26.25
2023-02-11T07:00:15.267Z,25.80
2023-02-11T07:01:09.195Z,26.42
2023-02-11T07:02:54.033Z,27.27
2023-02-11T07:03:39.082Z,26.40
2023-02-11T07:04:36.565Z,25.70
2023-02-11T07:05:21.514Z,24.80
2023-02-11T07:06:05.417Z,24.95
2023-02-11T07:06:51.770Z,23.25
2023-02-11T07:07:34.336Z,23.17
2023-02-11T07:08:21.788Z,23.38
2023-02-11T07:09:05.057Z,21.90
2023-02-11T07:09:46.797Z,24.55
2023-02-11T07:10:31.282Z,24.90
2023-02-11T07:11:24.680Z,26.92
2023-02-11T07:12:15.004Z,27.85
2023-02-11T07:12:59.459Z,24.50
2023-02-11T07:13:41.146Z,25.15
2023-02-11T07:14:24.654Z,24.20
2023-02-11T07:15:09.289Z,23.75
2023-02-11T07:15:55.543Z,24.20
2023-02-11T07:16:39.952Z,25.10
2023-02-11T07:17:28.345Z,25.65
2023-02-11T07:18:22.264Z,25.85
2023-02-11T07:19:06.570Z,21.73
2023-02-11T07:20:02.875Z,23.00
2023-02-11T07:20:49.256Z,22.83
2023-02-11T07:21:34.005Z,24.13
2023-02-11T07:22:18.602Z,24.00
2023-02-11T07:23:00.298Z,23.30
2023-02-11T07:23:46.293Z,26.38
2023-02-11T07:25:08.517Z,24.27
2023-02-11T07:25:54.778Z,23.67
2023-02-11T07:26:38.036Z,25.13
2023-02-11T07:27:23.662Z,23.13
2023-02-11T07:28:12.375Z,24.45
2023-02-11T07:28:56.982Z,24.98
2023-02-11T07:29:49.222Z,24.98
2023-02-11T07:30:46.142Z,23.45
2023-02-11T07:31:31.090Z,23.33
2023-02-11T07:32:13.863Z,24.65
2023-02-11T07:32:58.019Z,24.30
2023-02-11T07:33:45.947Z,24.52
2023-02-11T07:34:36.694Z,25.08
2023-02-11T07:35:30.375Z,25.48
2023-02-11T07:36:34.739Z,27.30
2023-02-11T07:37:21.598Z,27.23
2023-02-11T07:38:12.774Z,26.83
2023-02-11T07:39:03.043Z,28.30
2023-02-11T07:39:55.743Z,28.27
2023-02-11T07:40:40.214Z,26.38
2023-02-11T07:41:37.359Z,26.77
2023-02-11T07:42:31.559Z,27.63
2023-02-11T07:43:15.867Z,28.45
2023-02-11T07:44:02.833Z,29.10
2023-02-11T07:44:50.456Z,28.98
2023-02-11T07:45:33.793Z,29.08
2023-02-11T07:46:40.702Z,28.80
2023-02-11T07:47:45.861Z,29.52
2023-02-11T07:48:30.275Z,25.70
2023-02-11T07:49:15.010Z,29.65
2023-02-11T07:50:02.688Z,36.08
2023-02-11T07:50:55.096Z,31.30
2023-02-11T07:51:44.553Z,25.98
2023-02-11T07:52:34.315Z,26.30
2023-02-11T07:53:18.207Z,27.77
2023-02-11T07:54:05.478Z,26.35
2023-02-11T07:54:52.361Z,26.23
2023-02-11T07:55:45.983Z,25.63
2023-02-11T07:56:51.432Z,25.45
2023-02-11T07:57:33.115Z,24.90
2023-02-11T07:58:20.501Z,27.55
2023-02-11T07:59:05.062Z,27.60
2023-02-11T07:59:49.548Z,25.30
2023-02-11T08:00:34.280Z,24.58
2023-02-11T08:01:30.907Z,22.98
2023-02-11T08:02:16.501Z,32.80
2023-02-11T08:02:58.266Z,29.10
2023-02-11T08:03:44.049Z,28.27
2023-02-11T08:04:31.511Z,27.67
2023-02-11T08:05:17.152Z,29.40
2023-02-11T08:06:00.199Z,24.73
2023-02-11T08:06:44.385Z,24.23
2023-02-11T08:07:38.818Z,27.48
2023-02-11T08:08:41.942Z,27.27
2023-02-11T08:09:29.450Z,23.90
2023-02-11T08:10:13.235Z,35.95
2023-02-11T08:10:54.932Z,32.28
2023-02-11T08:11:59.950Z,31.00
2023-02-11T08:12:45.788Z,26.52
2023-02-11T08:13:33.510Z,25.77
2023-02-11T08:14:17.174Z,24.38
2023-02-11T08:15:12.264Z,23.27
2023-02-11T08:16:13.386Z,27.27
2023-02-11T08:17:02.206Z,34.47
2023-02-11T08:17:59.731Z,31.75
2023-02-11T08:18:41.359Z,29.17
2023-02-11T08:19:27.343Z,31.27
2023-02-11T08:20:19.704Z,28.80
2023-02-11T08:21:10.967Z,28.77
2023-02-11T08:22:05.477Z,29.25
2023-02-11T08:22:48.775Z,27.92
2023-02-11T08:23:30.450Z,25.88
2023-02-11T08:24:14.904Z,30.38
2023-02-11T08:25:00.234Z,29.85
2023-02-11T08:25:44.947Z,45.08
2023-02-11T08:26:29.347Z,40.28
2023-02-11T08:27:13.695Z,36.35
2023-02-11T08:28:08.175Z,37.30
2023-02-11T08:28:52.282Z,35.85
2023-02-11T08:29:34.058Z,35.42
2023-02-11T08:30:16.055Z,31.88
2023-02-11T08:31:13.366Z,32.47
2023-02-11T08:31:57.972Z,31.80
2023-02-11T08:32:44.542Z,25.65
2023-02-11T08:33:26.283Z,26.83
2023-02-11T08:34:08.497Z,27.25
2023-02-11T08:34:58.935Z,23.67
2023-02-11T08:35:41.404Z,22.13
2023-02-11T08:36:29.046Z,24.50
2023-02-11T08:37:17.661Z,24.77
2023-02-11T08:38:02.374Z,23.55
2023-02-11T08:38:51.115Z,29.10
2023-02-11T08:39:52.900Z,43.35
2023-02-11T08:40:37.244Z,45.20
2023-02-11T08:41:23.202Z,40.28
2023-02-11T08:42:13.280Z,32.10
2023-02-11T08:42:59.955Z,26.88
2023-02-11T08:43:54.167Z,25.77
2023-02-11T08:44:41.210Z,27.27
2023-02-11T08:45:27.093Z,24.27
2023-02-11T08:46:23.377Z,24.33
2023-02-11T08:47:10.778Z,22.80
2023-02-11T08:48:01.448Z,22.60
2023-02-11T08:48:47.132Z,24.25
2023-02-11T08:49:38.080Z,24.27
2023-02-11T08:50:24.163Z,23.33
2023-02-11T08:51:13.748Z,21.08
2023-02-11T08:51:56.352Z,21.98
2023-02-11T08:52:41.020Z,24.52
2023-02-11T08:53:34.642Z,22.15
2023-02-11T08:54:16.781Z,20.08
2023-02-11T08:55:13.027Z,20.58
2023-02-11T08:56:13.608Z,21.10
2023-02-11T08:57:07.807Z,20.77
2023-02-11T08:57:58.767Z,22.00
2023-02-11T08:58:41.174Z,23.40
2023-02-11T08:59:28.489Z,22.98
2023-02-11T09:00:28.539Z,23.48
2023-02-11T09:01:17.001Z,26.30
2023-02-11T09:02:03.906Z,22.48
2023-02-11T09:02:55.289Z,23.10
2023-02-11T09:03:48.361Z,23.42
2023-02-11T09:04:33.216Z,20.67
2023-02-11T09:05:27.985Z,20.23
2023-02-11T09:06:23.534Z,22.23
2023-02-11T09:07:25.546Z,20.95
2023-02-11T09:08:12.837Z,21.55
2023-02-11T09:08:57.687Z,22.27
2023-02-11T09:09:39.491Z,22.92
2023-02-11T09:10:39.425Z,22.40
2023-02-11T09:11:33.475Z,20.73
2023-02-11T09:12:38.096Z,23.58
2023-02-11T09:13:19.761Z,22.85
2023-02-11T09:14:04.612Z,25.83
2023-02-11T09:14:51.444Z,22.15
2023-02-11T09:15:39.365Z,22.23
2023-02-11T09:16:28.466Z,21.67
2023-02-11T09:17:14.529Z,20.67
2023-02-11T09:18:06.257Z,21.48
2023-02-11T09:18:50.883Z,21.73
2023-02-11T09:19:32.886Z,20.60
2023-02-11T09:20:21.525Z,20.65
2023-02-11T09:21:11.263Z,21.45
2023-02-11T09:21:55.088Z,22.73
2023-02-11T09:23:02.014Z,19.90
2023-02-11T09:23:51.100Z,21.90
2023-02-11T09:24:32.711Z,19.80
2023-02-11T09:25:30.832Z,21.63
2023-02-11T09:26:16.902Z,20.60
2023-02-11T09:27:00.844Z,23.02
2023-02-11T09:27:58.031Z,20.92
2023-02-11T09:28:43.168Z,20.77
2023-02-11T09:29:29.090Z,21.10
2023-02-11T09:30:11.659Z,20.33
2023-02-11T09:30:57.739Z,21.25
2023-02-11T09:31:40.912Z,19.70
2023-02-11T09:32:32.324Z,19.95
2023-02-11T09:33:38.549Z,21.90
2023-02-11T09:34:24.960Z,21.05
2023-02-11T09:35:22.970Z,21.58
2023-02-11T09:36:10.119Z,19.52
2023-02-11T09:36:53.240Z,18.95
2023-02-11T09:37:37.599Z,19.17
2023-02-11T09:38:22.002Z,20.90
2023-02-11T09:39:05.260Z,18.92
2023-02-11T09:39:48.692Z,23.13
2023-02-11T09:40:35.322Z,19.48
2023-02-11T09:41:28.865Z,19.88
2023-02-11T09:43:01.784Z,18.67
2023-02-11T09:43:51.454Z,20.65
2023-02-11T09:44:39.086Z,19.95
2023-02-11T09:45:33.955Z,18.58
2023-02-11T09:46:21.584Z,21.42
2023-02-11T09:47:26.190Z,21.45
2023-02-11T09:48:17.040Z,22.48
2023-02-11T09:49:02.876Z,21.40
2023-02-11T09:50:08.532Z,20.35
2023-02-11T09:51:02.360Z,21.00
2023-02-11T09:52:26.024Z,21.58
2023-02-11T09:53:17.537Z,20.63
2023-02-11T09:54:13.171Z,21.33
2023-02-11T09:55:13.606Z,23.70
2023-02-11T09:56:15.224Z,21.75
2023-02-11T09:57:12.293Z,21.75
2023-02-11T09:58:24.256Z,21.35
2023-02-11T09:59:16.438Z,22.50
2023-02-11T10:00:02.368Z,22.17
2023-02-11T10:01:33.928Z,22.60
2023-02-11T10:02:48.808Z,23.40
2023-02-11T10:04:14.228Z,23.17
2023-02-11T10:05:20.519Z,23.63
2023-02-11T10:06:21.674Z,23.17
2023-02-11T10:07:27.061Z,22.73
2023-02-11T10:08:46.060Z,23.55
2023-02-11T10:10:15.444Z,21.10
2023-02-11T10:11:30.885Z,24.33
2023-02-11T10:12:50.990Z,22.13
2023-02-11T10:13:50.445Z,21.25
2023-02-11T10:14:57.054Z,20.88
2023-02-11T10:15:53.129Z,22.77
2023-02-11T10:17:11.951Z,21.77
2023-02-11T10:18:35.143Z,22.58
2023-02-11T10:19:44.828Z,19.73
2023-02-11T10:21:12.273Z,18.88
2023-02-11T10:22:15.659Z,20.85
2023-02-11T10:23:24.781Z,22.05
2023-02-11T10:24:14.032Z,22.42
2023-02-11T10:25:27.927Z,20.67
2023-02-11T10:26:22.216Z,21.17
2023-02-11T10:27:38.174Z,18.25
2023-02-11T10:28:36.974Z,19.17
2023-02-11T10:29:30.638Z,19.73
2023-02-11T10:30:40.045Z,19.58
2023-02-11T10:31:36.014Z,19.55
2023-02-11T10:32:26.411Z,18.42
2023-02-11T10:33:28.161Z,20.27
2023-02-11T10:34:34.433Z,18.67
2023-02-11T10:35:36.400Z,18.77
2023-02-11T10:36:36.999Z,18.60
2023-02-11T10:37:25.846Z,18.60
2023-02-11T10:38:16.402Z,20.70
2023-02-11T10:39:12.983Z,19.33
2023-02-11T10:39:59.543Z,21.30
2023-02-11T10:40:43.872Z,20.75
2023-02-11T10:41:50.904Z,20.38
2023-02-11T10:42:37.020Z,21.83
2023-02-11T10:43:31.870Z,20.08
2023-02-11T10:44:28.768Z,20.77
2023-02-11T10:45:42.961Z,22.60
2023-02-11T10:46:40.240Z,20.60
2023-02-11T10:47:34.055Z,19.75
2023-02-11T10:48:40.165Z,22.05
2023-02-11T10:49:49.676Z,22.05
2023-02-11T10:50:37.943Z,21.38
2023-02-11T10:51:31.473Z,20.10
2023-02-11T10:52:24.591Z,21.92
2023-02-11T10:53:37.687Z,20.75
2023-02-11T10:54:24.326Z,21.20
2023-02-11T10:55:28.074Z,21.38
2023-02-11T10:56:35.248Z,21.60
2023-02-11T10:57:21.121Z,20.13
2023-02-11T10:58:03.505Z,19.40
2023-02-11T10:58:57.605Z,19.85
2023-02-11T10:59:42.139Z,20.05
2023-02-11T11:00:26.299Z,19.92
2023-02-11T11:01:24.245Z,19.55
2023-02-11T11:02:24.795Z,20.75
2023-02-11T11:03:18.589Z,19.27
2023-02-11T11:04:31.487Z,23.08
2023-02-11T11:05:23.790Z,20.08
2023-02-11T11:06:14.843Z,20.40
2023-02-11T11:07:01.062Z,18.88